Time;durP1;ratioP1;P1;durP2;ratioP2;P2;SDS_P1;SDS_P2;PMS_P1;PMS_P2;Temp;Humidity;BMP_temperature;BMP_pressure;BME280_temperature;BME280_humidity;BME280_pressure;Samples;Min_cycle;Max_cycle;Signal;HPM_P1;HPM_P2
2023/01/03 05:25:48;;;;;;;2.22;0.60;;;10.20;99.90;;;;;;5870437;23;20863;-82
2023/01/03 05:28:17;;;;;;;0.50;0.50;;;10.20;99.90;;;;;;4968531;28;20062;-83
2023/01/03 05:30:44;;;;;;;1.02;0.50;;;10.20;99.90;;;;;;4961070;28;20059;-84
2023/01/03 05:33:10;;;;;;;1.42;1.10;;;11.30;99.90;;;;;;4959380;29;20052;-85
2023/01/03 05:35:37;;;;;;;2.65;0.95;;;10.20;99.90;;;;;;4960610;29;20048;-85
2023/01/03 05:38:04;;;;;;;1.10;0.70;;;10.20;99.90;;;;;;4959843;29;20101;-85
2023/01/03 05:40:30;;;;;;;1.63;0.95;;;10.20;99.90;;;;;;4960901;29;20055;-82
2023/01/03 05:43:06;;;;;;;2.63;1.10;;;10.20;99.90;;;;;;4967395;29;20416;-83
2023/01/03 05:45:39;;;;;;;1.02;0.90;;;10.20;99.90;;;;;;4958296;28;20052;-83
2023/01/03 05:48:08;;;;;;;2.08;0.90;;;10.20;99.90;;;;;;4960141;29;20065;-82
2023/01/03 05:50:35;;;;;;;2.03;0.90;;;10.20;99.90;;;;;;4960415;29;20047;-82
2023/01/03 05:53:02;;;;;;;1.75;1.05;;;10.10;99.90;;;;;;4958806;29;20107;-83
2023/01/03 05:55:29;;;;;;;5.55;1.10;;;10.10;99.90;;;;;;4967727;29;20087;-84
2023/01/03 05:57:56;;;;;;;0.93;0.77;;;10.10;99.90;;;;;;4976499;28;20071;-82
2023/01/03 06:00:22;;;;;;;5.38;0.80;;;10.10;99.90;;;;;;4965010;28;20088;-83
2023/01/03 06:02:49;;;;;;;0.75;0.60;;;10.10;99.90;;;;;;4959345;29;20046;-85
2023/01/03 06:05:16;;;;;;;1.25;0.57;;;10.10;99.90;;;;;;4958506;29;20055;-82
2023/01/03 06:07:43;;;;;;;0.88;0.70;;;10.00;99.90;;;;;;4956015;29;20135;-85
2023/01/03 06:10:10;;;;;;;2.63;0.90;;;10.10;99.90;;;;;;4961836;29;20055;-84
2023/01/03 06:12:37;;;;;;;2.28;0.70;;;10.00;99.90;;;;;;4959036;29;20056;-83
2023/01/03 06:15:04;;;;;;;1.02;0.70;;;10.00;99.90;;;;;;4962233;29;20598;-83
2023/01/03 06:20:16;;;;;;;2.67;0.77;;;10.00;99.90;;;;;;4963464;29;20063;-82
2023/01/03 06:22:43;;;;;;;1.15;0.65;;;9.90;99.90;;;;;;4962185;29;20130;-82
2023/01/03 06:25:11;;;;;;;3.63;0.80;;;9.90;99.90;;;;;;4958280;29;20125;-82
2023/01/03 06:27:38;;;;;;;1.45;0.50;;;9.90;99.90;;;;;;4958860;28;20056;-84
2023/01/03 06:30:05;;;;;;;0.70;0.57;;;9.80;99.90;;;;;;4950158;29;20083;-84
2023/01/03 06:32:32;;;;;;;1.13;0.90;;;9.80;99.90;;;;;;4952336;29;20089;-82
2023/01/03 06:34:59;;;;;;;1.13;0.70;;;9.80;99.90;;;;;;4948954;29;20071;-82
2023/01/03 06:37:25;;;;;;;1.85;0.88;;;9.70;99.90;;;;;;4954456;29;20107;-83
2023/01/03 06:39:52;;;;;;;3.47;1.10;;;9.70;99.90;;;;;;4954116;29;20075;-82
2023/01/03 06:53:36;;;;;;;2.53;0.80;;;9.50;99.90;;;;;;4956981;29;20062;-83
2023/01/03 06:56:04;;;;;;;1.45;0.82;;;9.50;99.90;;;;;;4957251;29;20051;-84
2023/01/03 06:58:31;;;;;;;1.48;0.70;;;9.40;99.90;;;;;;4956238;29;20048;-83
2023/01/03 07:01:01;;;;;;;1.83;0.65;;;9.40;99.90;;;;;;4955862;29;20548;-84
2023/01/03 07:03:32;;;;;;;2.05;0.95;;;9.40;99.90;;;;;;4956861;28;20450;-83
2023/01/03 07:05:59;;;;;;;4.10;1.40;;;9.40;99.90;;;;;;4957176;29;20087;-83
2023/01/03 07:08:25;;;;;;;1.80;1.27;;;9.30;99.90;;;;;;4956406;29;20078;-83
2023/01/03 07:10:53;;;;;;;1.60;1.13;;;9.30;99.90;;;;;;4959811;29;20057;-83
2023/01/03 07:16:11;;;;;;;2.22;1.58;;;9.30;99.90;;;;;;4952876;29;20417;-82
2023/01/03 07:18:38;;;;;;;2.30;1.48;;;9.30;99.90;;;;;;4951304;28;20048;-82
2023/01/03 07:21:06;;;;;;;1.45;1.10;;;9.20;99.90;;;;;;4950450;29;20672;-82
2023/01/03 07:23:33;;;;;;;1.55;1.20;;;9.20;99.90;;;;;;4954728;29;20059;-81
2023/01/03 07:26:00;;;;;;;1.45;1.17;;;9.20;99.90;;;;;;4948123;29;20075;-81
2023/01/03 07:28:27;;;;;;;2.05;1.00;;;9.20;99.90;;;;;;4948929;29;20055;-82
2023/01/03 07:31:00;;;;;;;1.45;0.80;;;9.20;99.90;;;;;;4950456;29;20551;-82
2023/01/03 07:33:28;;;;;;;1.45;0.88;;;9.20;99.90;;;;;;4949193;29;20078;-83
2023/01/03 07:36:02;;;;;;;0.75;0.75;;;9.10;99.90;;;;;;4951869;28;20110;-82
2023/01/03 07:38:38;;;;;;;4.93;0.90;;;9.20;99.90;;;;;;4953727;29;20063;-82
2023/01/03 07:41:08;;;;;;;0.80;0.75;;;9.20;99.90;;;;;;4947987;29;20048;-83
2023/01/03 07:43:41;;;;;;;1.17;0.82;;;9.20;99.90;;;;;;4949014;28;20424;-82
2023/01/03 07:46:17;;;;;;;2.35;0.77;;;9.20;99.90;;;;;;4950256;29;20134;-82
2023/01/03 07:48:47;;;;;;;3.40;0.80;;;9.20;99.90;;;;;;4949808;29;20182;-82
2023/01/03 07:51:15;;;;;;;1.73;0.75;;;9.20;99.90;;;;;;4948817;29;20095;-82
2023/01/03 07:53:42;;;;;;;4.28;1.00;;;9.20;99.90;;;;;;4954175;28;20485;-82
2023/01/03 07:56:14;;;;;;;1.05;0.93;;;9.20;99.90;;;;;;4952611;28;20139;-82
2023/01/03 07:58:43;;;;;;;1.90;0.90;;;9.20;99.90;;;;;;4949548;28;20067;-82
2023/01/03 08:01:12;;;;;;;1.10;0.90;;;9.20;99.90;;;;;;4950652;29;20055;-83
2023/01/03 08:03:40;;;;;;;2.00;0.70;;;9.20;99.90;;;;;;4951388;29;20412;-81
2023/01/03 08:06:15;;;;;;;1.60;1.23;;;9.20;99.90;;;;;;4953613;29;20469;-82
2023/01/03 08:08:43;;;;;;;1.42;1.33;;;9.30;99.90;;;;;;4948010;29;20074;-82
2023/01/03 08:13:58;;;;;;;1.10;0.80;;;9.20;99.90;;;;;;4951515;29;20075;-83
2023/01/03 08:16:25;;;;;;;3.65;0.85;;;9.20;99.90;;;;;;4947220;29;20052;-82
2023/01/03 08:18:52;;;;;;;1.10;1.00;;;9.20;99.90;;;;;;4946137;29;20047;-83
2023/01/03 08:21:19;;;;;;;1.70;0.77;;;9.30;99.90;;;;;;4945199;28;20122;-80
2023/01/03 08:23:47;;;;;;;1.05;0.80;;;9.20;99.90;;;;;;4955975;29;20086;-82
2023/01/03 08:26:15;;;;;;;1.83;0.80;;;9.20;99.90;;;;;;4948167;29;20125;-82
2023/01/03 08:28:43;;;;;;;1.23;1.00;;;9.20;99.90;;;;;;4948030;29;20056;-82
2023/01/03 08:31:21;;;;;;;5.28;1.65;;;9.20;99.90;;;;;;4936744;28;20082;-83
2023/01/03 08:33:53;;;;;;;2.95;2.08;;;9.20;99.90;;;;;;4944446;29;20162;-82
2023/01/03 08:36:22;;;;;;;3.42;2.60;;;9.10;99.90;;;;;;4950695;29;20107;-82
2023/01/03 08:39:01;;;;;;;4.80;2.40;;;9.20;99.90;;;;;;4946399;29;20147;-82
2023/01/03 08:41:30;;;;;;;3.05;2.35;;;9.20;99.90;;;;;;4950729;29;20094;-81
2023/01/03 08:43:59;;;;;;;3.80;2.83;;;9.20;99.90;;;;;;4951008;29;20108;-83
2023/01/03 08:46:26;;;;;;;6.63;2.78;;;9.20;99.90;;;;;;4948397;29;20087;-83
2023/01/03 08:48:54;;;;;;;4.15;2.28;;;9.20;99.90;;;;;;4949471;29;20055;-86
2023/01/03 08:51:23;;;;;;;3.33;2.03;;;9.30;99.90;;;;;;4946270;29;20074;-80
2023/01/03 08:53:50;;;;;;;4.57;3.00;;;9.30;99.90;;;;;;4949922;28;20048;-78
2023/01/03 08:56:20;;;;;;;5.78;3.90;;;9.40;99.90;;;;;;4950188;28;20472;-78
2023/01/03 08:58:46;;;;;;;5.35;3.70;;;9.40;99.90;;;;;;4949160;28;20050;-77
2023/01/03 09:01:13;;;;;;;4.45;3.05;;;9.50;99.90;;;;;;4949831;28;20090;-78
2023/01/03 09:03:40;;;;;;;4.65;3.80;;;9.50;99.90;;;;;;4952099;29;20047;-78
2023/01/03 09:06:07;;;;;;;3.72;2.92;;;9.60;99.90;;;;;;4948542;28;20051;-78
2023/01/03 09:08:34;;;;;;;19.20;10.82;;;9.60;99.90;;;;;;4952046;28;20047;-77
2023/01/03 09:11:05;;;;;;;11.32;6.70;;;9.60;99.90;;;;;;4951677;28;20510;-79
2023/01/03 09:13:32;;;;;;;8.60;5.32;;;9.60;99.90;;;;;;4950807;29;20130;-78
2023/01/03 09:16:05;;;;;;;8.20;4.78;;;9.70;99.90;;;;;;4947306;29;20071;-78
2023/01/03 09:18:33;;;;;;;6.18;3.22;;;9.70;99.90;;;;;;4944993;29;20051;-78
2023/01/03 09:21:01;;;;;;;5.60;3.60;;;9.70;99.90;;;;;;4950951;29;20054;-79
2023/01/03 09:23:29;;;;;;;5.80;3.05;;;9.80;99.90;;;;;;4953566;28;20078;-79
2023/01/03 09:25:55;;;;;;;4.90;2.90;;;9.80;99.90;;;;;;4944590;29;20090;-78
2023/01/03 09:28:23;;;;;;;4.07;2.72;;;9.80;99.90;;;;;;4941599;29;20797;-78
2023/01/03 09:30:50;;;;;;;3.97;2.83;;;9.80;99.90;;;;;;4947451;29;20079;-78
2023/01/03 09:33:17;;;;;;;4.03;2.95;;;9.80;99.90;;;;;;4945915;29;20074;-78
2023/01/03 09:35:44;;;;;;;3.97;3.20;;;9.70;99.90;;;;;;4945236;29;20134;-78
2023/01/03 09:38:11;;;;;;;5.57;3.10;;;9.70;99.90;;;;;;4947933;29;20131;-78
2023/01/03 09:40:42;;;;;;;3.70;2.80;;;9.80;99.90;;;;;;4950429;29;20075;-78
2023/01/03 09:43:19;;;;;;;5.07;2.85;;;9.70;99.90;;;;;;4944637;29;20055;-78
2023/01/03 09:45:53;;;;;;;5.18;3.40;;;9.70;99.90;;;;;;4945425;29;20148;-78
2023/01/03 09:48:48;;;;;;;5.40;3.13;;;9.70;99.90;;;;;;4952067;29;20047;-78
2023/01/03 10:06:27;;;;;;;4.50;3.45;;;9.60;99.90;;;;;;4944635;29;20051;-78
2023/01/03 10:09:10;;;;;;;5.88;3.15;;;9.60;99.90;;;;;;4945836;28;20078;-78
2023/01/03 10:12:18;;;;;;;3.53;2.88;;;9.60;99.90;;;;;;4951657;29;20044;-79
2023/01/03 10:15:14;;;;;;;4.65;3.60;;;9.60;99.90;;;;;;4945780;29;20050;-78
2023/01/03 10:17:47;;;;;;;4.13;3.10;;;9.60;99.90;;;;;;4957889;28;20039;-79
2023/01/03 10:20:39;;;;;;;4.10;3.58;;;9.60;99.90;;;;;;4966656;28;20052;-75
2023/01/03 10:23:08;;;;;;;5.95;3.58;;;9.60;99.90;;;;;;4945601;28;20062;-79
2023/01/03 10:25:38;;;;;;;8.52;4.03;;;9.50;99.90;;;;;;4948768;28;20051;-79
2023/01/03 10:28:14;;;;;;;11.10;5.65;;;9.40;99.90;;;;;;4950000;28;20102;-77
2023/01/03 10:30:52;;;;;;;6.97;4.57;;;9.50;99.90;;;;;;4950594;28;20122;-79
2023/01/03 10:33:38;;;;;;;6.00;4.70;;;9.50;99.90;;;;;;4949020;29;20058;-80
2023/01/03 10:36:07;;;;;;;9.02;4.35;;;9.50;99.90;;;;;;4946161;28;20051;-80
2023/01/03 10:38:35;;;;;;;6.38;3.97;;;9.50;99.90;;;;;;4941176;28;20080;-76
2023/01/03 10:41:20;;;;;;;10.30;4.68;;;9.50;99.90;;;;;;4950249;28;20497;-80
2023/01/03 10:43:59;;;;;;;6.90;4.45;;;9.50;99.90;;;;;;4951013;28;20086;-80
2023/01/03 10:46:29;;;;;;;7.72;5.05;;;9.40;99.90;;;;;;4951263;28;20075;-77
2023/01/03 10:49:12;;;;;;;5.35;3.83;;;9.50;99.90;;;;;;4952999;28;20047;-80
2023/01/03 10:51:56;;;;;;;6.65;4.32;;;9.40;99.90;;;;;;4948719;28;20580;-81
2023/01/03 10:54:27;;;;;;;10.25;4.50;;;9.50;99.90;;;;;;4953709;28;20117;-78
2023/01/03 10:56:54;;;;;;;6.13;4.30;;;9.50;99.90;;;;;;4949428;28;20114;-78
2023/01/03 10:59:24;;;;;;;6.28;4.10;;;9.60;99.90;;;;;;4944689;28;20043;-78
2023/01/03 11:02:17;;;;;;;4.57;3.60;;;9.60;99.90;;;;;;4951476;28;20047;-78
2023/01/03 11:04:44;;;;;;;8.48;4.63;;;9.60;99.90;;;;;;4950691;28;20126;-78
2023/01/03 11:07:15;;;;;;;6.25;3.78;;;9.70;99.90;;;;;;4959732;28;20047;-77
2023/01/03 11:09:50;;;;;;;5.28;3.75;;;9.60;99.90;;;;;;4956908;28;20043;-78
2023/01/03 11:12:37;;;;;;;4.97;2.50;;;9.60;99.90;;;;;;4950997;28;20094;-80
2023/01/03 11:15:17;;;;;;;2.53;1.42;;;9.60;99.90;;;;;;4958885;28;20077;-78
2023/01/03 11:18:01;;;;;;;;;;;9.60;99.90;;;;;;4949501;29;20079;-77
2023/01/03 11:20:55;;;;;;;4.32;1.33;;;9.60;99.90;;;;;;4951717;29;19923;-80
2023/01/03 11:23:55;;;;;;;1.92;1.10;;;9.60;99.90;;;;;;4954587;29;20047;-80
2023/01/03 11:26:44;;;;;;;1.30;1.10;;;9.70;99.90;;;;;;4945856;29;20070;-80
2023/01/03 11:29:13;;;;;;;2.88;0.95;;;9.70;99.90;;;;;;4940643;29;20051;-80
2023/01/03 11:32:09;;;;;;;1.73;0.90;;;9.70;99.90;;;;;;4945318;28;20509;-80
2023/01/03 11:35:03;;;;;;;1.45;1.20;;;9.70;99.90;;;;;;4948109;29;20063;-79
2023/01/03 11:38:29;;;;;;;1.70;1.02;;;9.70;99.90;;;;;;4949026;29;20055;-80
2023/01/03 11:41:13;;;;;;;1.92;1.13;;;9.60;99.90;;;;;;4947454;28;20134;-78
2023/01/03 11:43:45;;;;;;;1.48;0.95;;;9.70;99.90;;;;;;4950817;29;20050;-77
2023/01/03 11:46:21;;;;;;;1.83;0.98;;;9.70;99.90;;;;;;4958345;29;20126;-79
2023/01/03 11:49:13;;;;;;;2.88;1.00;;;9.60;99.90;;;;;;4949034;29;20047;-77
2023/01/03 11:52:16;;;;;;;1.30;1.00;;;9.70;99.90;;;;;;4951402;29;20488;-78
2023/01/03 11:55:07;;;;;;;2.67;1.15;;;9.60;99.90;;;;;;4922485;29;20050;-77
2023/01/03 11:57:53;;;;;;;1.45;1.05;;;9.70;99.90;;;;;;4947268;29;20047;-78
2023/01/03 12:00:22;;;;;;;1.05;0.70;;;9.70;99.90;;;;;;4953116;28;20107;-79
2023/01/03 12:03:05;;;;;;;1.20;0.80;;;9.70;99.90;;;;;;4953629;29;20043;-78
2023/01/03 12:05:43;;;;;;;2.08;0.60;;;9.70;99.90;;;;;;4944936;29;20069;-77
2023/01/03 12:08:39;;;;;;;0.75;0.52;;;9.70;99.90;;;;;;4954401;29;20047;-78
2023/01/03 12:11:15;;;;;;;3.33;1.15;;;9.70;99.90;;;;;;4949365;29;20087;-77
2023/01/03 12:13:48;;;;;;;0.77;0.60;;;9.80;99.90;;;;;;4948838;29;20430;-78
2023/01/03 12:16:23;;;;;;;0.70;0.60;;;9.80;99.90;;;;;;4947376;29;20408;-78
2023/01/03 12:19:15;;;;;;;1.48;0.60;;;9.80;99.90;;;;;;4946892;29;20126;-78
2023/01/03 12:21:50;;;;;;;0.77;0.45;;;9.90;99.90;;;;;;4941208;29;20497;-76
2023/01/03 12:24:35;;;;;;;3.08;0.60;;;9.90;99.90;;;;;;4947693;29;20085;-78
2023/01/03 12:27:16;;;;;;;3.83;1.52;;;9.90;99.90;;;;;;4926126;28;20048;-78
2023/01/03 12:29:58;;;;;;;2.20;1.20;;;10.00;99.90;;;;;;4960067;28;20078;-78
2023/01/03 12:32:33;;;;;;;2.80;1.50;;;10.00;99.90;;;;;;4949305;29;20098;-77
2023/01/03 12:35:31;;;;;;;1.15;0.63;;;10.10;99.90;;;;;;4951560;28;20048;-78
2023/01/03 12:37:58;;;;;;;2.70;0.80;;;10.10;99.90;;;;;;4947095;29;20059;-79
2023/01/03 12:40:44;;;;;;;0.85;0.55;;;10.10;99.90;;;;;;4954571;29;20056;-79
2023/01/03 12:43:18;;;;;;;1.30;0.70;;;10.10;99.90;;;;;;4943166;29;20493;-78
2023/01/03 12:46:03;;;;;;;2.38;0.50;;;10.20;99.90;;;;;;4940283;29;20171;-79
2023/01/03 12:48:59;;;;;;;1.90;0.57;;;10.20;99.90;;;;;;4955834;29;20055;-78
2023/01/03 12:51:27;;;;;;;1.85;0.73;;;10.20;99.90;;;;;;4956232;28;20050;-78
2023/01/03 12:54:28;;;;;;;2.05;0.52;;;10.20;99.90;;;;;;4954596;29;20090;-79
2023/01/03 12:57:23;;;;;;;1.25;0.60;;;10.30;99.90;;;;;;4950531;29;20456;-79
2023/01/03 13:00:11;;;;;;;1.17;0.65;;;10.30;99.90;;;;;;4949700;29;20097;-79
2023/01/03 13:02:45;;;;;;;2.65;0.60;;;10.30;99.90;;;;;;4947439;29;20142;-79
2023/01/03 13:05:40;;;;;;;1.35;0.60;;;10.30;99.90;;;;;;4947825;29;20060;-78
2023/01/03 13:08:26;;;;;;;1.55;0.50;;;10.40;99.90;;;;;;4943310;29;20079;-78
2023/01/03 13:10:58;;;;;;;0.95;0.63;;;10.40;99.90;;;;;;4953116;29;20094;-78
2023/01/03 13:13:25;;;;;;;1.20;0.63;;;10.40;99.90;;;;;;4952693;28;20044;-79
2023/01/03 13:15:52;;;;;;;0.68;0.50;;;10.50;99.90;;;;;;4948182;29;20078;-78
2023/01/03 13:18:22;;;;;;;1.15;0.50;;;10.50;99.90;;;;;;4943142;29;20047;-78
2023/01/03 13:20:50;;;;;;;0.90;0.60;;;10.50;99.90;;;;;;4945097;29;20090;-78
2023/01/03 13:23:28;;;;;;;2.60;0.50;;;10.50;99.90;;;;;;4955099;29;20086;-79
2023/01/03 13:26:04;;;;;;;0.70;0.50;;;10.50;99.90;;;;;;4947942;29;20142;-78
2023/01/03 13:28:34;;;;;;;1.70;0.30;;;10.50;99.90;;;;;;4945166;29;20138;-78
2023/01/03 13:31:13;;;;;;;0.60;0.45;;;10.50;99.90;;;;;;4946177;29;20051;-77
2023/01/03 13:34:16;;;;;;;1.30;0.50;;;10.60;99.90;;;;;;4941399;29;20147;-79
2023/01/03 13:37:13;;;;;;;1.55;0.60;;;10.50;99.90;;;;;;4942370;29;20048;-78
2023/01/03 13:39:54;;;;;;;3.92;0.60;;;10.50;99.90;;;;;;4955881;29;20051;-80
2023/01/03 13:43:01;;;;;;;0.70;0.50;;;10.50;99.90;;;;;;4955183;28;20435;-77
2023/01/03 13:45:30;;;;;;;2.80;0.70;;;10.50;99.90;;;;;;4944414;29;20208;-78
2023/01/03 13:48:08;;;;;;;1.27;0.70;;;10.50;99.90;;;;;;4949547;29;20529;-79
2023/01/03 13:50:36;;;;;;;3.60;0.65;;;10.50;99.90;;;;;;4946741;29;20082;-78
2023/01/03 13:53:10;;;;;;;1.63;0.68;;;10.50;99.90;;;;;;4942102;29;20074;-78
2023/01/03 13:55:46;;;;;;;2.95;0.60;;;10.50;99.90;;;;;;4948249;29;20091;-78
2023/01/03 13:58:23;;;;;;;1.35;0.60;;;10.40;99.90;;;;;;4942038;29;20139;-77
2023/01/03 14:00:51;;;;;;;0.98;0.50;;;10.40;99.90;;;;;;4941190;29;20054;-78
2023/01/03 14:04:00;;;;;;;1.20;0.40;;;10.40;99.90;;;;;;4953760;29;20107;-77
2023/01/03 14:07:02;;;;;;;5.30;0.50;;;10.50;99.90;;;;;;4953774;29;20047;-79
2023/01/03 14:09:50;;;;;;;1.20;0.60;;;10.40;99.90;;;;;;4919091;29;20122;-77
2023/01/03 14:12:44;;;;;;;1.45;0.80;;;10.40;99.90;;;;;;4947362;29;20083;-79
2023/01/03 14:15:20;;;;;;;1.33;0.65;;;10.40;99.90;;;;;;4945119;29;20700;-78
2023/01/03 14:17:55;;;;;;;0.82;0.60;;;10.40;99.90;;;;;;4947382;29;20051;-79
2023/01/03 14:20:27;;;;;;;3.40;0.80;;;10.40;99.90;;;;;;4944861;28;20043;-78
2023/01/03 14:22:55;;;;;;;1.33;0.70;;;10.40;99.90;;;;;;4943267;29;20052;-78
2023/01/03 14:25:40;;;;;;;2.80;0.80;;;10.40;99.90;;;;;;4940868;29;20043;-78
2023/01/03 14:28:25;;;;;;;2.60;0.77;;;10.30;99.90;;;;;;4949915;29;20072;-78
2023/01/03 14:30:56;;;;;;;0.73;0.50;;;10.30;99.90;;;;;;4945928;28;20054;-79
2023/01/03 14:33:29;;;;;;;1.73;0.90;;;10.30;99.90;;;;;;4951029;28;20480;-78
2023/01/03 14:36:12;;;;;;;1.55;0.80;;;10.30;99.90;;;;;;4950052;29;20056;-78
2023/01/03 14:38:55;;;;;;;4.63;0.93;;;10.30;99.90;;;;;;4949729;28;20118;-78
2023/01/03 14:41:36;;;;;;;3.70;0.85;;;10.30;99.90;;;;;;4947508;29;20051;-79
2023/01/03 14:44:06;;;;;;;1.50;0.60;;;10.20;99.90;;;;;;4952447;29;20420;-78
2023/01/03 14:46:33;;;;;;;;;;;10.20;99.90;;;;;;4946654;29;20071;-78
2023/01/03 14:49:04;;;;;;;1.98;1.10;;;10.20;99.90;;;;;;4947227;29;19973;-76
2023/01/03 14:51:33;;;;;;;2.47;0.70;;;10.20;99.90;;;;;;4947170;28;20071;-80
2023/01/03 14:54:01;;;;;;;2.17;0.73;;;10.10;99.90;;;;;;4938107;29;20138;-78
2023/01/03 14:56:29;;;;;;;3.08;0.80;;;10.10;99.90;;;;;;4935795;28;20047;-78
2023/01/03 14:58:56;;;;;;;3.78;1.75;;;10.10;99.90;;;;;;4942703;29;20082;-77
2023/01/03 15:01:24;;;;;;;1.10;0.75;;;10.10;99.90;;;;;;4944484;29;20067;-78
2023/01/03 15:03:52;;;;;;;2.47;0.93;;;10.10;99.90;;;;;;4946072;29;20044;-78
2023/01/03 15:06:23;;;;;;;1.73;0.90;;;10.00;99.90;;;;;;4947390;29;20051;-78
2023/01/03 15:08:55;;;;;;;1.80;1.10;;;10.00;99.90;;;;;;4949808;29;20047;-80
2023/01/03 15:11:30;;;;;;;4.35;2.13;;;10.00;99.90;;;;;;4956866;29;20047;-80
2023/01/03 15:14:05;;;;;;;5.70;1.70;;;10.00;99.90;;;;;;4957520;29;20138;-78
2023/01/03 15:16:35;;;;;;;1.33;0.77;;;9.90;99.90;;;;;;4947087;29;20461;-78
2023/01/03 15:19:22;;;;;;;3.10;1.23;;;9.90;99.90;;;;;;4938235;29;20043;-78
2023/01/03 15:21:49;;;;;;;1.55;0.90;;;9.90;99.90;;;;;;4944965;29;20122;-78
2023/01/03 15:24:21;;;;;;;0.85;0.85;;;9.80;99.90;;;;;;4942336;29;20126;-77
2023/01/03 15:26:50;;;;;;;1.77;1.00;;;9.80;99.90;;;;;;4942367;29;20284;-77
2023/01/03 15:29:26;;;;;;;4.05;1.90;;;9.80;99.90;;;;;;4942960;28;20164;-77
2023/01/03 15:31:53;;;;;;;5.65;2.63;;;9.70;99.90;;;;;;4945465;29;20138;-77
2023/01/03 15:34:27;;;;;;;3.88;2.33;;;9.70;99.90;;;;;;4947559;29;20501;-77
2023/01/03 15:36:57;;;;;;;8.43;3.75;;;9.60;99.90;;;;;;4948317;29;20171;-77
2023/01/03 15:39:29;;;;;;;28.27;12.70;;;9.60;99.90;;;;;;4941840;29;20111;-78
2023/01/03 15:45:35;;;;;;;8.25;3.50;;;9.50;99.90;;;;;;4951872;29;20047;-77
2023/01/03 15:48:05;;;;;;;2.15;0.90;;;9.50;99.90;;;;;;4966019;28;20054;-77
2023/01/03 15:50:48;;;;;;;5.18;0.82;;;9.40;99.90;;;;;;4940891;29;20060;-76
2023/01/03 15:53:37;;;;;;;1.90;1.15;;;9.30;99.90;;;;;;4957284;28;20055;-77
2023/01/03 15:56:32;;;;;;;2.22;0.70;;;9.30;99.90;;;;;;4947173;29;20276;-78
2023/01/03 15:59:03;;;;;;;2.97;1.00;;;9.30;99.90;;;;;;4945745;29;20536;-78
2023/01/03 16:01:30;;;;;;;5.70;2.45;;;9.30;99.90;;;;;;4947784;29;20047;-77
2023/01/03 16:03:57;;;;;;;3.97;1.98;;;9.20;99.90;;;;;;4942175;28;20122;-79
2023/01/03 16:06:23;;;;;;;4.43;2.22;;;9.20;99.90;;;;;;4942821;29;20083;-77
2023/01/03 16:08:50;;;;;;;4.55;1.75;;;9.10;99.90;;;;;;4937087;29;20090;-77
2023/01/03 16:11:24;;;;;;;2.88;1.70;;;9.10;99.90;;;;;;4954378;29;20130;-76
2023/01/03 16:14:03;;;;;;;3.47;1.77;;;9.00;99.90;;;;;;4949921;28;20062;-77
2023/01/03 16:16:35;;;;;;;2.70;1.90;;;9.00;99.90;;;;;;4946830;29;20048;-77
2023/01/03 16:19:04;;;;;;;4.03;1.38;;;8.90;99.90;;;;;;4947875;29;20043;-79
2023/01/03 16:21:31;;;;;;;2.28;1.52;;;8.80;99.90;;;;;;4947909;28;20043;-77
2023/01/03 16:23:58;;;;;;;2.22;1.38;;;8.80;99.90;;;;;;4943683;28;20174;-77
2023/01/03 16:26:25;;;;;;;3.47;1.30;;;8.70;99.90;;;;;;4942992;29;20083;-77
2023/01/03 16:28:52;;;;;;;4.57;1.60;;;8.70;99.90;;;;;;4942512;29;20083;-77
2023/01/03 16:31:27;;;;;;;3.83;2.00;;;8.60;99.90;;;;;;4940705;29;20127;-78
2023/01/03 16:33:54;;;;;;;2.90;1.50;;;8.60;99.90;;;;;;4939671;29;20482;-77
2023/01/03 16:36:29;;;;;;;3.63;1.80;;;8.60;99.90;;;;;;4936413;29;20059;-77
2023/01/03 16:38:56;;;;;;;3.53;2.30;;;8.60;99.90;;;;;;4953736;29;20098;-77
2023/01/03 16:41:23;;;;;;;4.63;2.53;;;8.50;99.90;;;;;;4952360;28;20519;-77
2023/01/03 16:43:51;;;;;;;4.03;2.50;;;8.50;99.90;;;;;;4950168;29;20105;-77
2023/01/03 16:46:21;;;;;;;4.15;2.47;;;8.40;99.90;;;;;;4945724;29;20496;-78
2023/01/03 16:48:53;;;;;;;2.85;2.10;;;8.40;99.90;;;;;;4944159;29;20576;-78
2023/01/03 16:51:29;;;;;;;5.03;2.50;;;8.30;99.90;;;;;;4947841;29;20093;-78
2023/01/03 16:53:57;;;;;;;5.80;2.78;;;8.30;99.90;;;;;;4941697;29;20102;-77
2023/01/03 16:56:25;;;;;;;6.10;2.25;;;8.30;99.90;;;;;;4951157;29;20544;-77
2023/01/03 16:58:52;;;;;;;4.22;2.15;;;8.20;99.90;;;;;;4948993;28;20047;-77
2023/01/03 17:01:19;;;;;;;4.13;1.90;;;8.20;99.90;;;;;;4936782;29;20055;-77
2023/01/03 17:03:46;;;;;;;3.33;2.10;;;8.20;99.90;;;;;;4949820;29;20495;-77
2023/01/03 17:06:28;;;;;;;3.70;2.42;;;8.10;99.90;;;;;;4949361;29;20062;-79
2023/01/03 17:09:19;;;;;;;6.25;3.75;;;8.10;99.90;;;;;;4947124;29;20051;-77
2023/01/03 17:11:47;;;;;;;5.78;3.88;;;8.10;99.90;;;;;;4952499;29;20138;-77
2023/01/03 17:14:19;;;;;;;9.30;4.60;;;8.10;99.90;;;;;;4946988;29;20102;-77
2023/01/03 17:16:47;;;;;;;6.45;3.42;;;8.00;99.90;;;;;;4949229;29;20091;-77
2023/01/03 17:19:20;;;;;;;4.00;3.00;;;8.00;99.90;;;;;;4940636;29;20090;-77
2023/01/03 17:22:13;;;;;;;6.72;3.28;;;8.00;99.90;;;;;;4946045;29;20051;-77
2023/01/03 17:24:40;;;;;;;8.30;3.67;;;7.90;99.90;;;;;;4943563;29;20402;-77
2023/01/03 17:27:17;;;;;;;8.43;4.07;;;7.90;99.90;;;;;;4941785;29;20561;-77
2023/01/03 17:29:45;;;;;;;9.05;5.35;;;7.90;99.90;;;;;;4957230;29;20106;-77
2023/01/03 17:32:17;;;;;;;5.47;3.67;;;7.90;99.90;;;;;;4955842;28;20405;-77
2023/01/03 17:34:43;;;;;;;7.00;4.90;;;7.90;99.90;;;;;;4943677;29;20147;-77
2023/01/03 17:37:17;;;;;;;8.13;4.20;;;7.80;99.90;;;;;;4945795;29;20043;-79
2023/01/03 17:39:52;;;;;;;6.32;3.60;;;7.70;99.90;;;;;;4950645;29;20051;-76
2023/01/03 17:42:20;;;;;;;7.28;4.50;;;7.70;99.90;;;;;;4965708;28;20047;-77
2023/01/03 17:50:24;;;;;;;9.97;5.47;;;7.60;99.90;;;;;;4939723;29;20072;-78
2023/01/03 17:52:51;;;;;;;9.40;4.53;;;7.60;99.90;;;;;;4956350;29;20047;-77
2023/01/03 17:55:25;;;;;;;7.80;3.60;;;7.60;99.90;;;;;;4956404;29;20147;-76
2023/01/03 17:57:53;;;;;;;5.75;3.25;;;7.60;99.90;;;;;;4941553;29;20055;-77
2023/01/03 18:00:23;;;;;;;8.45;3.40;;;7.50;99.90;;;;;;4943196;29;20567;-77
2023/01/03 18:02:51;;;;;;;5.57;3.45;;;7.50;99.90;;;;;;4955709;29;20139;-77
2023/01/03 18:05:20;;;;;;;6.97;3.75;;;7.50;99.90;;;;;;4952020;28;20107;-77
2023/01/03 18:07:59;;;;;;;6.13;4.03;;;7.50;99.90;;;;;;4954682;29;20138;-76
2023/01/03 18:10:39;;;;;;;6.03;3.92;;;7.50;99.90;;;;;;4953163;29;20059;-77
2023/01/03 18:13:30;;;;;;;7.35;3.55;;;7.50;99.90;;;;;;4938638;29;20079;-77
2023/01/03 18:15:57;;;;;;;6.35;3.95;;;7.40;99.90;;;;;;4938727;29;20052;-77
2023/01/03 18:18:26;;;;;;;5.75;2.70;;;7.40;99.90;;;;;;4938410;29;20075;-77
2023/01/03 18:20:54;;;;;;;4.18;2.65;;;7.40;99.90;;;;;;4955395;29;20083;-77
2023/01/03 18:23:31;;;;;;;5.65;2.67;;;7.40;99.90;;;;;;4954321;29;20083;-77
2023/01/03 18:26:09;;;;;;;3.75;2.70;;;7.40;99.90;;;;;;4954530;29;20577;-76
2023/01/03 18:28:36;;;;;;;5.50;2.65;;;7.40;99.90;;;;;;4944060;28;20091;-77
2023/01/03 18:31:02;;;;;;;6.40;3.03;;;7.40;99.90;;;;;;4945928;29;20504;-78
2023/01/03 18:33:29;;;;;;;5.85;2.85;;;7.40;99.90;;;;;;4962397;28;20114;-77
2023/01/03 18:35:56;;;;;;;5.88;2.72;;;7.40;99.90;;;;;;4948423;29;20485;-79
2023/01/03 18:38:40;;;;;;;3.30;2.65;;;7.40;99.90;;;;;;4951772;28;20043;-78
2023/01/03 18:41:17;;;;;;;4.18;2.58;;;7.30;99.90;;;;;;4938107;28;20417;-77
2023/01/03 18:43:44;;;;;;;3.97;2.45;;;7.30;99.90;;;;;;4955231;29;20075;-76
2023/01/03 18:46:14;;;;;;;3.90;2.50;;;7.30;99.90;;;;;;4954823;29;20126;-76
2023/01/03 18:48:41;;;;;;;4.22;3.20;;;7.30;99.90;;;;;;4950761;28;20059;-79
2023/01/03 18:51:17;;;;;;;11.30;7.60;;;7.30;99.90;;;;;;4951136;29;20480;-77
2023/01/03 18:53:46;;;;;;;8.02;5.45;;;7.30;99.90;;;;;;4944944;29;20051;-77
2023/01/03 18:56:36;;;;;;;6.78;4.68;;;7.20;99.90;;;;;;4948680;28;20139;-77
2023/01/03 18:59:17;;;;;;;;;;;7.20;99.90;;;;;;4939863;29;20134;-78
2023/01/03 19:01:44;;;;;;;6.90;3.30;;;7.20;99.90;;;;;;4949862;29;20013;-78
2023/01/03 19:04:11;;;;;;;5.07;3.05;;;7.20;99.90;;;;;;4942208;29;20048;-78
2023/01/03 19:06:41;;;;;;;3.78;3.33;;;7.20;99.90;;;;;;4940502;29;20139;-79
2023/01/03 19:09:13;;;;;;;5.30;3.42;;;7.10;99.90;;;;;;4939977;29;20075;-79
2023/01/03 19:11:40;;;;;;;4.97;3.42;;;7.10;99.90;;;;;;4953795;29;20151;-78
2023/01/03 19:14:08;;;;;;;6.10;3.63;;;7.10;99.90;;;;;;4954324;29;20078;-79
2023/01/03 19:16:36;;;;;;;6.20;3.13;;;7.10;99.90;;;;;;4955214;29;20107;-79
2023/01/03 19:19:05;;;;;;;5.35;3.50;;;7.10;99.90;;;;;;4950304;28;20134;-78
2023/01/03 19:21:35;;;;;;;5.20;2.78;;;7.10;99.90;;;;;;4946456;29;20106;-78
2023/01/03 19:24:06;;;;;;;6.53;4.25;;;7.10;99.90;;;;;;4949074;29;20437;-78
2023/01/03 19:26:39;;;;;;;6.38;3.88;;;7.00;99.90;;;;;;4945872;29;20055;-78
2023/01/03 19:29:15;;;;;;;6.43;3.85;;;6.90;99.90;;;;;;4951769;29;20085;-79
2023/01/03 19:31:44;;;;;;;8.43;3.97;;;7.00;99.90;;;;;;4945014;29;20072;-78
2023/01/03 19:34:17;;;;;;;6.10;2.93;;;7.00;99.90;;;;;;4940694;29;20091;-78
2023/01/03 19:36:44;;;;;;;4.18;2.78;;;6.90;99.90;;;;;;4950252;29;20110;-79
2023/01/03 19:39:11;;;;;;;3.55;2.65;;;6.90;99.90;;;;;;4955506;28;20175;-78